sensor_id;sensor_type;location;lat;lon;timestamp;pressure;altitude;pressure_sealevel;temperature;humidity
60246;BME280;46107;53.356;-1.524;2023-05-10T00:00:45;98296.02;;;7.32;71.73
60246;BME280;46107;53.356;-1.524;2023-05-10T00:03:13;98291.97;;;7.99;70.06
60246;BME280;46107;53.356;-1.524;2023-05-10T00:05:40;98296.71;;;6.64;72.94
60246;BME280;46107;53.356;-1.524;2023-05-10T00:08:13;98301.46;;;6.97;72.69
60246;BME280;46107;53.356;-1.524;2023-05-10T00:10:41;98302.52;;;6.95;71.32
60246;BME280;46107;53.356;-1.524;2023-05-10T00:13:08;98300.49;;;7.09;70.61
60246;BME280;46107;53.356;-1.524;2023-05-10T00:15:36;98304.10;;;7.64;69.32
60246;BME280;46107;53.356;-1.524;2023-05-10T00:18:04;98305.74;;;7.43;68.92
60246;BME280;46107;53.356;-1.524;2023-05-10T00:20:36;98307.29;;;6.79;71.80
60246;BME280;46107;53.356;-1.524;2023-05-10T00:23:04;98312.53;;;8.15;67.19
60246;BME280;46107;53.356;-1.524;2023-05-10T00:25:31;98310.51;;;8.04;65.93
60246;BME280;46107;53.356;-1.524;2023-05-10T00:27:59;98304.93;;;7.33;69.70
60246;BME280;46107;53.356;-1.524;2023-05-10T00:30:26;98303.94;;;6.96;71.21
60246;BME280;46107;53.356;-1.524;2023-05-10T00:32:54;98300.31;;;7.70;68.83
60246;BME280;46107;53.356;-1.524;2023-05-10T00:35:28;98303.07;;;7.58;70.01
60246;BME280;46107;53.356;-1.524;2023-05-10T00:37:56;98303.50;;;7.68;71.62
60246;BME280;46107;53.356;-1.524;2023-05-10T00:40:24;98304.99;;;6.65;73.63
60246;BME280;46107;53.356;-1.524;2023-05-10T00:42:52;98302.06;;;7.08;74.91
60246;BME280;46107;53.356;-1.524;2023-05-10T00:45:20;98300.84;;;8.10;73.04
60246;BME280;46107;53.356;-1.524;2023-05-10T00:47:48;98299.58;;;8.02;72.77
60246;BME280;46107;53.356;-1.524;2023-05-10T00:50:16;98298.22;;;7.68;73.79
60246;BME280;46107;53.356;-1.524;2023-05-10T00:52:44;98300.46;;;7.37;73.91
60246;BME280;46107;53.356;-1.524;2023-05-10T00:55:11;98301.10;;;8.01;72.22
60246;BME280;46107;53.356;-1.524;2023-05-10T00:57:40;98297.97;;;8.44;70.29
60246;BME280;46107;53.356;-1.524;2023-05-10T01:00:10;98295.67;;;7.18;73.01
60246;BME280;46107;53.356;-1.524;2023-05-10T01:02:37;98299.37;;;7.96;71.74
60246;BME280;46107;53.356;-1.524;2023-05-10T01:05:05;98299.68;;;7.15;73.53
60246;BME280;46107;53.356;-1.524;2023-05-10T01:07:33;98298.64;;;8.14;71.94
60246;BME280;46107;53.356;-1.524;2023-05-10T01:10:01;98301.94;;;8.57;70.81
60246;BME280;46107;53.356;-1.524;2023-05-10T01:12:29;98295.27;;;7.91;71.30
60246;BME280;46107;53.356;-1.524;2023-05-10T01:14:57;98294.21;;;7.21;75.40
60246;BME280;46107;53.356;-1.524;2023-05-10T01:17:25;98298.67;;;8.01;71.00
60246;BME280;46107;53.356;-1.524;2023-05-10T01:19:53;98299.18;;;8.21;71.94
60246;BME280;46107;53.356;-1.524;2023-05-10T01:22:38;98295.46;;;8.25;70.22
60246;BME280;46107;53.356;-1.524;2023-05-10T01:25:28;98289.05;;;7.44;73.11
60246;BME280;46107;53.356;-1.524;2023-05-10T01:28:18;98303.60;;;8.09;71.14
60246;BME280;46107;53.356;-1.524;2023-05-10T01:31:03;98303.00;;;7.60;72.63
60246;BME280;46107;53.356;-1.524;2023-05-10T01:33:38;98301.27;;;8.07;70.68
60246;BME280;46107;53.356;-1.524;2023-05-10T01:36:19;98302.36;;;9.07;68.92
60246;BME280;46107;53.356;-1.524;2023-05-10T01:38:53;98302.42;;;7.87;71.40
60246;BME280;46107;53.356;-1.524;2023-05-10T01:41:28;98304.34;;;8.15;69.74
60246;BME280;46107;53.356;-1.524;2023-05-10T01:44:02;98305.50;;;8.45;70.03
60246;BME280;46107;53.356;-1.524;2023-05-10T01:46:35;98301.76;;;8.91;67.93
60246;BME280;46107;53.356;-1.524;2023-05-10T01:49:06;98307.49;;;8.36;70.81
60246;BME280;46107;53.356;-1.524;2023-05-10T01:51:39;98312.42;;;8.28;69.60
60246;BME280;46107;53.356;-1.524;2023-05-10T01:54:09;98314.01;;;8.47;69.07
60246;BME280;46107;53.356;-1.524;2023-05-10T01:56:40;98314.77;;;8.63;69.62
60246;BME280;46107;53.356;-1.524;2023-05-10T01:59:12;98307.51;;;8.83;67.11
60246;BME280;46107;53.356;-1.524;2023-05-10T02:01:43;98314.44;;;8.14;70.08
60246;BME280;46107;53.356;-1.524;2023-05-10T02:04:15;98311.93;;;8.29;71.04
60246;BME280;46107;53.356;-1.524;2023-05-10T02:06:44;98316.33;;;8.64;68.78
60246;BME280;46107;53.356;-1.524;2023-05-10T02:09:13;98317.96;;;8.82;69.48
60246;BME280;46107;53.356;-1.524;2023-05-10T02:11:43;98322.61;;;8.56;70.19
60246;BME280;46107;53.356;-1.524;2023-05-10T02:14:11;98322.61;;;8.54;71.51
60246;BME280;46107;53.356;-1.524;2023-05-10T02:16:40;98322.05;;;8.14;70.94
60246;BME280;46107;53.356;-1.524;2023-05-10T02:19:09;98322.45;;;9.04;69.26
60246;BME280;46107;53.356;-1.524;2023-05-10T02:21:38;98325.21;;;8.66;69.98
60246;BME280;46107;53.356;-1.524;2023-05-10T02:24:07;98317.34;;;9.07;67.47
60246;BME280;46107;53.356;-1.524;2023-05-10T02:26:36;98329.10;;;8.75;69.04
60246;BME280;46107;53.356;-1.524;2023-05-10T02:29:05;98331.77;;;8.07;71.16
60246;BME280;46107;53.356;-1.524;2023-05-10T02:31:35;98328.54;;;8.72;68.94
60246;BME280;46107;53.356;-1.524;2023-05-10T02:34:03;98324.74;;;9.45;66.90
60246;BME280;46107;53.356;-1.524;2023-05-10T02:36:31;98330.67;;;8.00;71.26
60246;BME280;46107;53.356;-1.524;2023-05-10T02:38:59;98322.87;;;9.70;67.36
60246;BME280;46107;53.356;-1.524;2023-05-10T02:41:29;98324.92;;;9.75;65.31
60246;BME280;46107;53.356;-1.524;2023-05-10T02:44:00;98325.88;;;9.62;66.29
60246;BME280;46107;53.356;-1.524;2023-05-10T02:46:28;98330.23;;;8.52;69.75
60246;BME280;46107;53.356;-1.524;2023-05-10T02:48:56;98328.82;;;8.77;69.76
60246;BME280;46107;53.356;-1.524;2023-05-10T02:51:25;98327.00;;;8.41;69.51
60246;BME280;46107;53.356;-1.524;2023-05-10T02:53:56;98319.83;;;9.45;67.60
60246;BME280;46107;53.356;-1.524;2023-05-10T02:56:29;98326.69;;;9.09;68.99
60246;BME280;46107;53.356;-1.524;2023-05-10T02:58:59;98323.49;;;10.22;64.47
60246;BME280;46107;53.356;-1.524;2023-05-10T03:01:26;98320.95;;;9.39;64.68
60246;BME280;46107;53.356;-1.524;2023-05-10T03:03:54;98322.74;;;10.06;64.50
60246;BME280;46107;53.356;-1.524;2023-05-10T03:06:21;98322.94;;;9.18;66.79
60246;BME280;46107;53.356;-1.524;2023-05-10T03:08:49;98325.99;;;9.37;65.72
60246;BME280;46107;53.356;-1.524;2023-05-10T03:11:30;98324.68;;;9.22;67.27
60246;BME280;46107;53.356;-1.524;2023-05-10T03:14:10;98319.68;;;9.75;65.36
60246;BME280;46107;53.356;-1.524;2023-05-10T03:16:44;98317.73;;;9.18;67.77
60246;BME280;46107;53.356;-1.524;2023-05-10T03:19:16;98321.69;;;8.79;68.78
60246;BME280;46107;53.356;-1.524;2023-05-10T03:21:49;98317.19;;;7.52;74.71
60246;BME280;46107;53.356;-1.524;2023-05-10T03:24:21;98323.04;;;8.78;70.23
60246;BME280;46107;53.356;-1.524;2023-05-10T03:26:57;98323.43;;;7.28;73.92
60246;BME280;46107;53.356;-1.524;2023-05-10T03:29:26;98324.42;;;8.09;72.27
60246;BME280;46107;53.356;-1.524;2023-05-10T03:31:55;98328.84;;;8.55;72.13
60246;BME280;46107;53.356;-1.524;2023-05-10T03:34:24;98325.97;;;8.44;72.00
60246;BME280;46107;53.356;-1.524;2023-05-10T03:36:51;98326.55;;;8.28;73.10
60246;BME280;46107;53.356;-1.524;2023-05-10T03:39:19;98328.30;;;8.78;70.96
60246;BME280;46107;53.356;-1.524;2023-05-10T03:41:47;98330.64;;;9.59;70.86
60246;BME280;46107;53.356;-1.524;2023-05-10T03:44:15;98322.97;;;9.16;68.84
60246;BME280;46107;53.356;-1.524;2023-05-10T03:46:46;98331.55;;;8.90;69.51
60246;BME280;46107;53.356;-1.524;2023-05-10T03:49:14;98327.19;;;9.34;69.23
60246;BME280;46107;53.356;-1.524;2023-05-10T03:51:41;98334.48;;;8.76;69.24
60246;BME280;46107;53.356;-1.524;2023-05-10T03:54:09;98323.97;;;10.52;64.56
60246;BME280;46107;53.356;-1.524;2023-05-10T03:56:37;98328.70;;;8.36;70.37
60246;BME280;46107;53.356;-1.524;2023-05-10T03:59:04;98329.66;;;7.90;72.24
60246;BME280;46107;53.356;-1.524;2023-05-10T04:01:31;98318.41;;;7.44;75.78
60246;BME280;46107;53.356;-1.524;2023-05-10T04:03:59;98320.08;;;7.64;75.49
60246;BME280;46107;53.356;-1.524;2023-05-10T04:06:27;98318.08;;;7.48;75.59
60246;BME280;46107;53.356;-1.524;2023-05-10T04:08:55;98320.17;;;7.87;74.77
60246;BME280;46107;53.356;-1.524;2023-05-10T04:11:22;98317.23;;;8.48;72.94
60246;BME280;46107;53.356;-1.524;2023-05-10T04:13:50;98319.74;;;7.51;74.93
60246;BME280;46107;53.356;-1.524;2023-05-10T04:16:17;98327.60;;;8.29;74.23
60246;BME280;46107;53.356;-1.524;2023-05-10T04:18:45;98326.66;;;7.53;77.39
60246;BME280;46107;53.356;-1.524;2023-05-10T04:21:13;98326.61;;;7.73;75.24
60246;BME280;46107;53.356;-1.524;2023-05-10T04:23:41;98325.31;;;8.56;71.01
60246;BME280;46107;53.356;-1.524;2023-05-10T04:26:09;98329.44;;;8.31;72.92
60246;BME280;46107;53.356;-1.524;2023-05-10T04:28:41;98331.61;;;7.37;75.22
60246;BME280;46107;53.356;-1.524;2023-05-10T04:31:10;98333.36;;;7.59;75.58
60246;BME280;46107;53.356;-1.524;2023-05-10T04:33:38;98332.89;;;7.62;77.11
60246;BME280;46107;53.356;-1.524;2023-05-10T04:36:06;98338.32;;;6.67;80.01
60246;BME280;46107;53.356;-1.524;2023-05-10T04:38:34;98343.47;;;6.79;80.77
60246;BME280;46107;53.356;-1.524;2023-05-10T04:41:05;98340.14;;;7.38;80.01
60246;BME280;46107;53.356;-1.524;2023-05-10T04:43:33;98342.68;;;6.88;80.77
60246;BME280;46107;53.356;-1.524;2023-05-10T04:46:01;98346.27;;;6.81;81.73
60246;BME280;46107;53.356;-1.524;2023-05-10T04:48:28;98345.11;;;6.97;81.60
60246;BME280;46107;53.356;-1.524;2023-05-10T04:50:56;98347.14;;;7.45;80.59
60246;BME280;46107;53.356;-1.524;2023-05-10T04:53:23;98349.63;;;6.39;82.65
60246;BME280;46107;53.356;-1.524;2023-05-10T04:55:51;98347.01;;;7.96;76.87
60246;BME280;46107;53.356;-1.524;2023-05-10T04:58:18;98354.39;;;7.32;80.05
60246;BME280;46107;53.356;-1.524;2023-05-10T05:00:46;98351.62;;;7.97;77.98
60246;BME280;46107;53.356;-1.524;2023-05-10T05:03:14;98363.34;;;6.63;80.90
60246;BME280;46107;53.356;-1.524;2023-05-10T05:05:43;98360.08;;;8.07;76.43
60246;BME280;46107;53.356;-1.524;2023-05-10T05:08:10;98365.15;;;8.15;76.38
60246;BME280;46107;53.356;-1.524;2023-05-10T05:10:38;98371.55;;;8.39;73.75
60246;BME280;46107;53.356;-1.524;2023-05-10T05:13:06;98375.10;;;8.74;73.76
60246;BME280;46107;53.356;-1.524;2023-05-10T05:15:33;98372.03;;;8.77;73.70
60246;BME280;46107;53.356;-1.524;2023-05-10T05:18:01;98369.77;;;7.44;76.45
60246;BME280;46107;53.356;-1.524;2023-05-10T05:20:33;98376.55;;;8.61;74.43
60246;BME280;46107;53.356;-1.524;2023-05-10T05:23:01;98377.04;;;8.37;74.07
60246;BME280;46107;53.356;-1.524;2023-05-10T05:25:29;98383.60;;;8.41;74.24
60246;BME280;46107;53.356;-1.524;2023-05-10T05:27:57;98385.03;;;8.18;75.40
60246;BME280;46107;53.356;-1.524;2023-05-10T05:30:24;98384.74;;;8.76;74.18
60246;BME280;46107;53.356;-1.524;2023-05-10T05:32:52;98385.01;;;8.01;76.45
60246;BME280;46107;53.356;-1.524;2023-05-10T05:35:19;98390.48;;;7.72;79.50
60246;BME280;46107;53.356;-1.524;2023-05-10T05:37:47;98393.52;;;8.23;77.66
60246;BME280;46107;53.356;-1.524;2023-05-10T05:40:15;98399.51;;;8.32;76.78
60246;BME280;46107;53.356;-1.524;2023-05-10T05:42:55;98400.76;;;8.16;76.94
60246;BME280;46107;53.356;-1.524;2023-05-10T05:45:23;98406.99;;;8.96;75.72
60246;BME280;46107;53.356;-1.524;2023-05-10T05:47:51;98402.30;;;8.03;75.81
60246;BME280;46107;53.356;-1.524;2023-05-10T05:50:19;98401.33;;;9.83;71.58
60246;BME280;46107;53.356;-1.524;2023-05-10T05:52:47;98398.04;;;8.11;76.81
60246;BME280;46107;53.356;-1.524;2023-05-10T05:55:16;98401.55;;;9.66;70.55
60246;BME280;46107;53.356;-1.524;2023-05-10T05:57:44;98397.32;;;9.86;70.47
60246;BME280;46107;53.356;-1.524;2023-05-10T06:00:12;98401.67;;;9.36;71.33
60246;BME280;46107;53.356;-1.524;2023-05-10T06:02:40;98404.00;;;9.25;73.20
60246;BME280;46107;53.356;-1.524;2023-05-10T06:05:09;98401.67;;;9.66;70.86
60246;BME280;46107;53.356;-1.524;2023-05-10T06:07:38;98407.54;;;9.04;71.20
60246;BME280;46107;53.356;-1.524;2023-05-10T06:10:07;98409.13;;;9.55;70.21
60246;BME280;46107;53.356;-1.524;2023-05-10T06:12:34;98405.23;;;9.71;68.96
60246;BME280;46107;53.356;-1.524;2023-05-10T06:15:02;98409.92;;;8.83;73.28
60246;BME280;46107;53.356;-1.524;2023-05-10T06:17:30;98411.31;;;8.71;73.18
60246;BME280;46107;53.356;-1.524;2023-05-10T06:19:58;98402.32;;;10.56;68.15
60246;BME280;46107;53.356;-1.524;2023-05-10T06:22:26;98407.94;;;9.76;68.00
60246;BME280;46107;53.356;-1.524;2023-05-10T06:24:56;98409.62;;;10.19;67.74
60246;BME280;46107;53.356;-1.524;2023-05-10T06:27:23;98412.45;;;10.36;68.23
60246;BME280;46107;53.356;-1.524;2023-05-10T06:29:51;98414.43;;;10.90;65.01
60246;BME280;46107;53.356;-1.524;2023-05-10T06:32:18;98417.08;;;10.26;66.20
60246;BME280;46107;53.356;-1.524;2023-05-10T06:34:47;98415.59;;;11.88;62.94
60246;BME280;46107;53.356;-1.524;2023-05-10T06:37:15;98411.87;;;12.44;59.35
60246;BME280;46107;53.356;-1.524;2023-05-10T06:39:43;98417.42;;;11.90;62.19
60246;BME280;46107;53.356;-1.524;2023-05-10T06:42:13;98415.93;;;12.44;61.40
60246;BME280;46107;53.356;-1.524;2023-05-10T06:44:41;98422.39;;;11.80;60.05
60246;BME280;46107;53.356;-1.524;2023-05-10T06:47:10;98425.59;;;11.70;60.81
60246;BME280;46107;53.356;-1.524;2023-05-10T06:49:42;98432.05;;;10.94;61.05
60246;BME280;46107;53.356;-1.524;2023-05-10T06:52:10;98434.69;;;11.41;60.90
60246;BME280;46107;53.356;-1.524;2023-05-10T06:54:37;98435.11;;;11.76;61.42
60246;BME280;46107;53.356;-1.524;2023-05-10T06:57:06;98432.71;;;12.64;56.91
60246;BME280;46107;53.356;-1.524;2023-05-10T06:59:39;98430.72;;;12.54;56.53
60246;BME280;46107;53.356;-1.524;2023-05-10T07:02:06;98427.62;;;12.93;56.49
60246;BME280;46107;53.356;-1.524;2023-05-10T07:04:33;98431.91;;;12.98;54.41
60246;BME280;46107;53.356;-1.524;2023-05-10T07:07:01;98430.04;;;13.01;54.49
60246;BME280;46107;53.356;-1.524;2023-05-10T07:09:28;98428.78;;;14.07;51.31
60246;BME280;46107;53.356;-1.524;2023-05-10T07:11:55;98433.96;;;13.52;53.00
60246;BME280;46107;53.356;-1.524;2023-05-10T07:14:24;98429.11;;;14.49;51.14
60246;BME280;46107;53.356;-1.524;2023-05-10T07:16:51;98438.01;;;13.61;51.02
60246;BME280;46107;53.356;-1.524;2023-05-10T07:19:19;98431.18;;;14.42;51.50
60246;BME280;46107;53.356;-1.524;2023-05-10T07:21:47;98435.76;;;13.78;52.88
60246;BME280;46107;53.356;-1.524;2023-05-10T07:24:15;98431.75;;;12.93;53.59
60246;BME280;46107;53.356;-1.524;2023-05-10T07:26:42;98428.45;;;14.84;49.47
60246;BME280;46107;53.356;-1.524;2023-05-10T07:29:10;98438.85;;;13.34;54.02
60246;BME280;46107;53.356;-1.524;2023-05-10T07:31:38;98429.82;;;14.36;51.72
60246;BME280;46107;53.356;-1.524;2023-05-10T07:34:05;98430.11;;;14.50;50.57
60246;BME280;46107;53.356;-1.524;2023-05-10T07:36:33;98428.70;;;15.08;48.11
60246;BME280;46107;53.356;-1.524;2023-05-10T07:39:01;98430.52;;;13.86;52.52
60246;BME280;46107;53.356;-1.524;2023-05-10T07:41:34;98433.14;;;13.86;51.73
60246;BME280;46107;53.356;-1.524;2023-05-10T07:44:01;98427.99;;;14.61;52.02
60246;BME280;46107;53.356;-1.524;2023-05-10T07:46:35;98434.27;;;13.81;53.38
60246;BME280;46107;53.356;-1.524;2023-05-10T07:49:17;98433.49;;;13.85;53.02
60246;BME280;46107;53.356;-1.524;2023-05-10T07:51:45;98436.62;;;13.73;53.80
60246;BME280;46107;53.356;-1.524;2023-05-10T07:54:13;98441.83;;;13.62;52.12
60246;BME280;46107;53.356;-1.524;2023-05-10T07:56:41;98444.70;;;13.84;50.91
60246;BME280;46107;53.356;-1.524;2023-05-10T07:59:08;98445.01;;;14.09;50.50
60246;BME280;46107;53.356;-1.524;2023-05-10T08:01:36;98437.61;;;15.01;49.94
60246;BME280;46107;53.356;-1.524;2023-05-10T08:04:09;98439.59;;;14.09;51.93
60246;BME280;46107;53.356;-1.524;2023-05-10T08:06:37;98437.28;;;14.63;52.26
60246;BME280;46107;53.356;-1.524;2023-05-10T08:09:04;98441.21;;;14.42;51.46
60246;BME280;46107;53.356;-1.524;2023-05-10T08:11:31;98447.34;;;13.86;51.18
60246;BME280;46107;53.356;-1.524;2023-05-10T08:13:59;98451.30;;;13.72;50.86
60246;BME280;46107;53.356;-1.524;2023-05-10T08:16:27;98445.68;;;14.82;51.33
60246;BME280;46107;53.356;-1.524;2023-05-10T08:18:54;98453.39;;;13.95;50.04
60246;BME280;46107;53.356;-1.524;2023-05-10T08:21:22;98449.64;;;13.00;54.45
60246;BME280;46107;53.356;-1.524;2023-05-10T08:23:49;98447.04;;;13.22;52.22
60246;BME280;46107;53.356;-1.524;2023-05-10T08:26:17;98447.56;;;14.26;50.37
60246;BME280;46107;53.356;-1.524;2023-05-10T08:28:43;98447.63;;;13.35;52.07
60246;BME280;46107;53.356;-1.524;2023-05-10T08:31:11;98447.12;;;14.22;50.56
60246;BME280;46107;53.356;-1.524;2023-05-10T08:33:38;98442.13;;;14.45;48.74
60246;BME280;46107;53.356;-1.524;2023-05-10T08:36:06;98441.42;;;14.61;48.88
60246;BME280;46107;53.356;-1.524;2023-05-10T08:38:34;98440.59;;;15.42;48.51
60246;BME280;46107;53.356;-1.524;2023-05-10T08:41:02;98442.17;;;15.42;47.60
60246;BME280;46107;53.356;-1.524;2023-05-10T08:43:31;98439.85;;;14.54;50.68
60246;BME280;46107;53.356;-1.524;2023-05-10T08:46:01;98438.11;;;15.60;46.72
60246;BME280;46107;53.356;-1.524;2023-05-10T08:48:30;98436.97;;;15.57;45.28
60246;BME280;46107;53.356;-1.524;2023-05-10T08:50:58;98438.08;;;16.20;44.22
60246;BME280;46107;53.356;-1.524;2023-05-10T08:53:29;98436.53;;;15.95;43.37
60246;BME280;46107;53.356;-1.524;2023-05-10T08:55:58;98436.49;;;15.48;43.21
60246;BME280;46107;53.356;-1.524;2023-05-10T08:58:26;98435.37;;;15.65;42.99
60246;BME280;46107;53.356;-1.524;2023-05-10T09:00:54;98440.34;;;16.33;41.60
60246;BME280;46107;53.356;-1.524;2023-05-10T09:03:21;98438.23;;;15.75;44.16
60246;BME280;46107;53.356;-1.524;2023-05-10T09:05:49;98437.14;;;15.54;46.16
60246;BME280;46107;53.356;-1.524;2023-05-10T09:08:17;98442.22;;;15.28;45.95
60246;BME280;46107;53.356;-1.524;2023-05-10T09:10:45;98438.70;;;16.30;42.14
60246;BME280;46107;53.356;-1.524;2023-05-10T09:13:14;98441.61;;;15.10;44.62
60246;BME280;46107;53.356;-1.524;2023-05-10T09:15:45;98443.97;;;14.42;44.65
60246;BME280;46107;53.356;-1.524;2023-05-10T09:18:13;98442.99;;;15.26;43.80
60246;BME280;46107;53.356;-1.524;2023-05-10T09:20:41;98442.19;;;14.90;45.31
60246;BME280;46107;53.356;-1.524;2023-05-10T09:23:10;98446.36;;;15.62;45.50
60246;BME280;46107;53.356;-1.524;2023-05-10T09:25:38;98444.94;;;15.42;44.10
60246;BME280;46107;53.356;-1.524;2023-05-10T09:28:10;98448.08;;;15.25;44.21
60246;BME280;46107;53.356;-1.524;2023-05-10T09:30:38;98452.71;;;15.36;45.01
60246;BME280;46107;53.356;-1.524;2023-05-10T09:33:06;98456.76;;;15.47;44.55
60246;BME280;46107;53.356;-1.524;2023-05-10T09:35:34;98459.42;;;15.66;44.98
60246;BME280;46107;53.356;-1.524;2023-05-10T09:38:04;98458.53;;;14.69;46.11
60246;BME280;46107;53.356;-1.524;2023-05-10T09:40:32;98457.06;;;14.69;48.05
60246;BME280;46107;53.356;-1.524;2023-05-10T09:43:01;98455.40;;;15.16;47.97
60246;BME280;46107;53.356;-1.524;2023-05-10T09:45:32;98451.11;;;14.39;48.00
60246;BME280;46107;53.356;-1.524;2023-05-10T09:48:01;98448.76;;;14.79;49.00
60246;BME280;46107;53.356;-1.524;2023-05-10T09:50:29;98445.91;;;15.32;47.57
60246;BME280;46107;53.356;-1.524;2023-05-10T09:52:59;98445.99;;;13.88;49.89
60246;BME280;46107;53.356;-1.524;2023-05-10T09:55:39;98448.25;;;13.71;49.60
60246;BME280;46107;53.356;-1.524;2023-05-10T09:58:07;98443.60;;;15.56;47.44
60246;BME280;46107;53.356;-1.524;2023-05-10T10:00:36;98443.96;;;15.25;47.01
60246;BME280;46107;53.356;-1.524;2023-05-10T10:03:06;98443.80;;;15.76;46.22
60246;BME280;46107;53.356;-1.524;2023-05-10T10:05:34;98445.34;;;15.81;47.32
60246;BME280;46107;53.356;-1.524;2023-05-10T10:08:04;98446.05;;;15.71;46.87
60246;BME280;46107;53.356;-1.524;2023-05-10T10:10:33;98447.49;;;15.80;43.95
60246;BME280;46107;53.356;-1.524;2023-05-10T10:13:02;98440.33;;;14.64;48.03
60246;BME280;46107;53.356;-1.524;2023-05-10T10:15:29;98446.14;;;15.51;44.64
60246;BME280;46107;53.356;-1.524;2023-05-10T10:17:57;98443.31;;;15.92;44.83
60246;BME280;46107;53.356;-1.524;2023-05-10T10:20:32;98442.78;;;15.27;44.80
60246;BME280;46107;53.356;-1.524;2023-05-10T10:23:00;98441.09;;;15.84;44.37
60246;BME280;46107;53.356;-1.524;2023-05-10T10:25:41;98442.73;;;15.91;46.22
60246;BME280;46107;53.356;-1.524;2023-05-10T10:28:19;98438.39;;;15.59;47.63
60246;BME280;46107;53.356;-1.524;2023-05-10T10:30:51;98434.76;;;17.09;43.75
60246;BME280;46107;53.356;-1.524;2023-05-10T10:33:42;98431.43;;;15.10;46.55
60246;BME280;46107;53.356;-1.524;2023-05-10T10:36:19;98435.02;;;16.10;42.42
60246;BME280;46107;53.356;-1.524;2023-05-10T10:39:09;98430.84;;;16.01;41.98
60246;BME280;46107;53.356;-1.524;2023-05-10T10:41:39;98436.07;;;15.35;44.85
60246;BME280;46107;53.356;-1.524;2023-05-10T10:44:39;98436.42;;;15.88;44.11
60246;BME280;46107;53.356;-1.524;2023-05-10T10:47:28;98437.01;;;15.52;44.75
60246;BME280;46107;53.356;-1.524;2023-05-10T10:50:04;98437.76;;;15.27;46.25
60246;BME280;46107;53.356;-1.524;2023-05-10T10:52:33;98434.69;;;14.48;48.15
60246;BME280;46107;53.356;-1.524;2023-05-10T10:55:02;98437.28;;;15.56;45.12
60246;BME280;46107;53.356;-1.524;2023-05-10T10:57:32;98435.35;;;14.24;47.12
60246;BME280;46107;53.356;-1.524;2023-05-10T11:00:35;98440.83;;;13.90;49.48
60246;BME280;46107;53.356;-1.524;2023-05-10T11:03:04;98434.51;;;14.94;47.90
60246;BME280;46107;53.356;-1.524;2023-05-10T11:05:38;98439.20;;;14.57;49.77
60246;BME280;46107;53.356;-1.524;2023-05-10T11:08:10;98436.97;;;15.40;47.96
60246;BME280;46107;53.356;-1.524;2023-05-10T11:10:39;98434.89;;;15.41;48.50
60246;BME280;46107;53.356;-1.524;2023-05-10T11:13:08;98435.20;;;15.50;49.37
60246;BME280;46107;53.356;-1.524;2023-05-10T11:15:38;98431.40;;;15.39;47.75
60246;BME280;46107;53.356;-1.524;2023-05-10T11:18:23;98431.26;;;14.91;51.79
60246;BME280;46107;53.356;-1.524;2023-05-10T11:20:52;98429.70;;;14.38;50.28
60246;BME280;46107;53.356;-1.524;2023-05-10T11:23:22;98429.95;;;16.18;44.46
60246;BME280;46107;53.356;-1.524;2023-05-10T11:25:50;98427.44;;;14.88;47.34
60246;BME280;46107;53.356;-1.524;2023-05-10T11:28:17;98425.34;;;16.14;47.14
60246;BME280;46107;53.356;-1.524;2023-05-10T11:30:46;98419.64;;;15.44;47.33
60246;BME280;46107;53.356;-1.524;2023-05-10T11:33:18;98419.50;;;14.40;49.71
60246;BME280;46107;53.356;-1.524;2023-05-10T11:35:46;98413.72;;;16.00;46.42
60246;BME280;46107;53.356;-1.524;2023-05-10T11:38:14;98410.55;;;16.21;49.21
60246;BME280;46107;53.356;-1.524;2023-05-10T11:40:42;98405.65;;;15.96;44.80
60246;BME280;46107;53.356;-1.524;2023-05-10T11:43:11;98403.39;;;16.74;42.23
60246;BME280;46107;53.356;-1.524;2023-05-10T11:45:40;98397.87;;;16.27;42.32
60246;BME280;46107;53.356;-1.524;2023-05-10T11:48:09;98404.78;;;16.14;43.30
60246;BME280;46107;53.356;-1.524;2023-05-10T11:50:35;98403.89;;;16.05;44.84
60246;BME280;46107;53.356;-1.524;2023-05-10T11:53:03;98405.46;;;16.72;41.45
60246;BME280;46107;53.356;-1.524;2023-05-10T11:55:34;98407.03;;;16.34;42.95
60246;BME280;46107;53.356;-1.524;2023-05-10T11:58:02;98410.09;;;15.83;43.27
60246;BME280;46107;53.356;-1.524;2023-05-10T12:00:30;98411.09;;;15.19;45.99
60246;BME280;46107;53.356;-1.524;2023-05-10T12:03:00;98413.53;;;14.46;46.49
60246;BME280;46107;53.356;-1.524;2023-05-10T12:05:28;98422.81;;;15.42;46.92
60246;BME280;46107;53.356;-1.524;2023-05-10T12:08:11;98424.61;;;15.92;46.62
60246;BME280;46107;53.356;-1.524;2023-05-10T12:10:39;98424.98;;;16.45;46.77
60246;BME280;46107;53.356;-1.524;2023-05-10T12:13:11;98427.11;;;15.89;48.00
60246;BME280;46107;53.356;-1.524;2023-05-10T12:15:38;98430.65;;;15.41;49.20
60246;BME280;46107;53.356;-1.524;2023-05-10T12:18:05;98446.09;;;13.07;50.29
60246;BME280;46107;53.356;-1.524;2023-05-10T12:20:35;98443.04;;;14.05;49.29
60246;BME280;46107;53.356;-1.524;2023-05-10T12:23:03;98438.98;;;12.81;50.19
60246;BME280;46107;53.356;-1.524;2023-05-10T12:25:33;98435.49;;;12.71;51.20
60246;BME280;46107;53.356;-1.524;2023-05-10T12:28:04;98440.59;;;11.30;58.41
60246;BME280;46107;53.356;-1.524;2023-05-10T12:30:34;98440.95;;;13.34;57.20
60246;BME280;46107;53.356;-1.524;2023-05-10T12:33:08;98437.52;;;13.50;56.96
60246;BME280;46107;53.356;-1.524;2023-05-10T12:35:45;98441.10;;;12.22;62.12
60246;BME280;46107;53.356;-1.524;2023-05-10T12:38:32;98445.74;;;13.54;56.83
60246;BME280;46107;53.356;-1.524;2023-05-10T12:41:02;98445.93;;;11.70;58.87
60246;BME280;46107;53.356;-1.524;2023-05-10T12:43:32;98438.64;;;14.42;55.94
60246;BME280;46107;53.356;-1.524;2023-05-10T12:46:04;98439.21;;;13.57;63.01
60246;BME280;46107;53.356;-1.524;2023-05-10T12:48:32;98437.16;;;13.52;57.97
60246;BME280;46107;53.356;-1.524;2023-05-10T12:51:02;98428.32;;;14.24;56.79
60246;BME280;46107;53.356;-1.524;2023-05-10T12:53:35;98430.46;;;14.38;58.74
60246;BME280;46107;53.356;-1.524;2023-05-10T12:56:04;98432.36;;;15.53;53.20
60246;BME280;46107;53.356;-1.524;2023-05-10T12:58:31;98432.36;;;15.41;52.35
60246;BME280;46107;53.356;-1.524;2023-05-10T13:01:00;98433.22;;;16.23;47.72
60246;BME280;46107;53.356;-1.524;2023-05-10T13:03:28;98434.86;;;16.20;47.06
60246;BME280;46107;53.356;-1.524;2023-05-10T13:05:56;98439.29;;;15.58;47.04
60246;BME280;46107;53.356;-1.524;2023-05-10T13:08:23;98442.38;;;15.78;47.35